createdAt,value
2022-10-21T00:00:13.087Z,100508.41
2022-10-21T00:02:46.372Z,100531.25
2022-10-21T00:05:14.950Z,100521.63
2022-10-21T00:07:42.684Z,100524.06
2022-10-21T00:10:11.637Z,100516.50
2022-10-21T00:12:40.309Z,100513.91
2022-10-21T00:15:10.380Z,100507.22
2022-10-21T00:17:39.711Z,100500.84
2022-10-21T00:20:12.296Z,100488.84
2022-10-21T00:22:40.431Z,100499.97
2022-10-21T00:25:09.877Z,100505.84
2022-10-21T00:27:38.578Z,100490.88
2022-10-21T00:30:08.666Z,100503.44
2022-10-21T00:32:36.887Z,100499.84
2022-10-21T00:35:05.260Z,100496.06
2022-10-21T00:37:34.577Z,100496.78
2022-10-21T00:40:02.504Z,100493.16
2022-10-21T00:42:33.607Z,100491.13
2022-10-21T00:45:12.792Z,100486.44
2022-10-21T00:47:45.358Z,100484.56
2022-10-21T00:50:23.877Z,100487.16
2022-10-21T00:52:54.756Z,100479.91
2022-10-21T00:55:23.001Z,100491.78
2022-10-21T00:57:52.061Z,100490.75
2022-10-21T01:00:20.582Z,100488.16
2022-10-21T01:02:48.325Z,100488.16
2022-10-21T01:05:18.021Z,100488.72
2022-10-21T01:07:48.428Z,100488.72
2022-10-21T01:10:18.417Z,100492.34
2022-10-21T01:12:58.571Z,100481.19
2022-10-21T01:15:31.133Z,100470.34
2022-10-21T01:18:06.884Z,100468.59
2022-10-21T01:20:54.266Z,100461.22
2022-10-21T01:23:57.815Z,100457.75
2022-10-21T01:26:58.931Z,100449.66
2022-10-21T01:30:06.911Z,100446.72
2022-10-21T01:32:47.966Z,100438.84
2022-10-21T01:35:22.326Z,100443.50
2022-10-21T01:38:04.515Z,100438.84
2022-10-21T01:40:38.104Z,100435.56
2022-10-21T01:43:16.048Z,100429.91
2022-10-21T01:45:47.832Z,100436.44
2022-10-21T01:48:20.331Z,100429.19
2022-10-21T01:50:52.904Z,100426.59
2022-10-21T01:53:22.816Z,100427.63
2022-10-21T01:55:52.666Z,100423.16
2022-10-21T01:58:25.042Z,100420.25
2022-10-21T02:00:57.330Z,100417.66
2022-10-21T02:03:30.786Z,100412.34
2022-10-21T02:05:59.096Z,100414.22
2022-10-21T02:08:27.367Z,100411.47
2022-10-21T02:10:58.439Z,100412.34
2022-10-21T02:13:31.326Z,100404.97
2022-10-21T02:16:01.895Z,100394.28
2022-10-21T02:18:31.128Z,100388.22
2022-10-21T02:21:02.902Z,100384.13
2022-10-21T02:23:36.776Z,100387.22
2022-10-21T02:26:04.730Z,100388.06
2022-10-21T02:28:33.507Z,100378.09
2022-10-21T02:31:13.607Z,100384.31
2022-10-21T02:33:53.207Z,100378.81
2022-10-21T02:36:28.976Z,100380.84
2022-10-21T02:39:02.039Z,100382.56
2022-10-21T02:41:31.483Z,100388.22
2022-10-21T02:44:01.608Z,100387.38
2022-10-21T02:46:37.699Z,100382.72
2022-10-21T02:49:07.511Z,100392.88
2022-10-21T02:51:35.455Z,100381.19
2022-10-21T02:54:03.460Z,100377.59
2022-10-21T02:56:31.280Z,100378.44
2022-10-21T02:58:59.082Z,100388.59
2022-10-21T03:01:26.911Z,100384.97
2022-10-21T03:03:54.692Z,100384.09
2022-10-21T03:06:23.830Z,100390.31
2022-10-21T03:08:51.639Z,100375.84
2022-10-21T03:11:19.390Z,100372.25
2022-10-21T03:13:47.237Z,100367.78
2022-10-21T03:16:15.056Z,100371.38
2022-10-21T03:18:42.854Z,100376.88
2022-10-21T03:21:10.644Z,100382.38
2022-10-21T03:23:39.763Z,100388.75
2022-10-21T03:26:07.515Z,100377.88
2022-10-21T03:28:35.312Z,100388.88
2022-10-21T03:31:03.168Z,100390.75
2022-10-21T03:33:30.932Z,100389.91
2022-10-21T03:35:58.661Z,100388.00
2022-10-21T03:38:26.587Z,100378.03
2022-10-21T03:40:55.785Z,100381.66
2022-10-21T03:43:23.516Z,100387.16
2022-10-21T03:45:51.275Z,100376.31
2022-10-21T03:48:19.157Z,100380.97
2022-10-21T03:50:46.900Z,100375.47
2022-10-21T03:53:37.956Z,100373.56
2022-10-21T03:56:03.846Z,100369.97
2022-10-21T03:58:31.659Z,100367.38
2022-10-21T04:00:59.468Z,100364.63
2022-10-21T04:03:27.261Z,100366.53
2022-10-21T04:05:55.277Z,100367.38
2022-10-21T04:08:23.289Z,100362.91
2022-10-21T04:10:51.152Z,100374.78
2022-10-21T04:13:20.474Z,100380.97
2022-10-21T04:15:48.505Z,100367.38
2022-10-21T04:18:16.518Z,100368.25
2022-10-21T04:20:44.303Z,100370.13
2022-10-21T04:23:12.053Z,100373.75
2022-10-21T04:25:39.908Z,100380.97
2022-10-21T04:28:07.682Z,100372.72
2022-10-21T04:30:37.064Z,100366.00
2022-10-21T04:33:05.215Z,100372.53
2022-10-21T04:35:33.018Z,100375.28
2022-10-21T04:38:01.080Z,100375.28
2022-10-21T04:40:28.987Z,100367.03
2022-10-21T04:42:56.882Z,100371.66
2022-10-21T04:45:24.794Z,100374.41
2022-10-21T04:47:53.915Z,100375.00
2022-10-21T04:50:24.987Z,100367.63
2022-10-21T04:52:52.832Z,100360.50
2022-10-21T04:55:20.594Z,100366.75
2022-10-21T04:57:48.504Z,100361.25
2022-10-21T05:00:16.592Z,100364.69
2022-10-21T05:02:44.437Z,100354.72
2022-10-21T05:05:13.543Z,100356.28
2022-10-21T05:07:41.354Z,100351.81
2022-10-21T05:10:10.106Z,100344.44
2022-10-21T05:12:37.890Z,100339.97
2022-10-21T05:15:06.365Z,100346.13
2022-10-21T05:17:42.105Z,100341.69
2022-10-21T05:20:12.072Z,100337.03
2022-10-21T05:22:42.160Z,100341.31
2022-10-21T05:25:10.811Z,100331.34
2022-10-21T05:27:41.705Z,100335.81
2022-10-21T05:30:11.261Z,100332.91
2022-10-21T05:32:40.063Z,100330.16
2022-10-21T05:35:09.127Z,100323.81
2022-10-21T05:37:36.991Z,100307.16
2022-10-21T05:40:07.960Z,100310.59
2022-10-21T05:42:36.140Z,100317.13
2022-10-21T05:45:04.844Z,100306.97
2022-10-21T05:47:32.869Z,100306.13
2022-10-21T05:50:00.798Z,100295.97
2022-10-21T05:52:28.688Z,100291.34
2022-10-21T05:54:56.559Z,100287.56
2022-10-21T05:57:25.875Z,100294.75
2022-10-21T05:59:53.907Z,100290.31
2022-10-21T06:02:21.703Z,100307.66
2022-10-21T06:04:49.462Z,100304.06
2022-10-21T06:07:17.320Z,100294.97
2022-10-21T06:09:45.394Z,100297.72
2022-10-21T06:12:13.387Z,100295.81
2022-10-21T06:14:43.570Z,100294.59
2022-10-21T06:17:11.563Z,100294.75
2022-10-21T06:19:39.425Z,100298.38
2022-10-21T06:22:13.877Z,100290.31
2022-10-21T06:24:41.824Z,100283.75
2022-10-21T06:27:10.061Z,100288.25
2022-10-21T06:29:37.989Z,100293.75
2022-10-21T06:32:07.230Z,100297.34
2022-10-21T06:34:35.236Z,100303.72
2022-10-21T06:37:03.082Z,100297.34
2022-10-21T06:39:31.034Z,100306.47
2022-10-21T06:42:00.280Z,100313.53
2022-10-21T06:44:56.620Z,100304.56
2022-10-21T06:47:28.650Z,100319.03
2022-10-21T06:49:56.779Z,100317.31
2022-10-21T06:54:52.539Z,100302.53
2022-10-21T06:57:20.507Z,100302.38
2022-10-21T06:59:48.552Z,100304.91
2022-10-21T07:02:16.507Z,100305.97
2022-10-21T07:04:48.780Z,100323.00
2022-10-21T07:07:16.940Z,100327.78
2022-10-21T07:09:44.843Z,100325.75
2022-10-21T07:12:14.014Z,100330.91
2022-10-21T07:14:41.926Z,100339.16
2022-10-21T07:17:10.332Z,100347.25
2022-10-21T07:19:38.173Z,100362.72
2022-10-21T07:22:07.435Z,100358.75
2022-10-21T07:24:35.699Z,100369.94
2022-10-21T07:27:03.784Z,100388.00
2022-10-21T07:29:31.965Z,100389.72
2022-10-21T07:31:59.863Z,100396.09
2022-10-21T07:34:28.333Z,100391.28
2022-10-21T07:36:56.280Z,100396.78
2022-10-21T07:39:27.694Z,100392.81
2022-10-21T07:41:58.353Z,100400.91
2022-10-21T07:44:27.469Z,100403.66
2022-10-21T07:46:56.078Z,100407.13
2022-10-21T07:49:24.973Z,100402.47
2022-10-21T07:51:53.801Z,100409.72
2022-10-21T07:54:25.042Z,100409.53
2022-10-21T07:56:54.443Z,100404.88
2022-10-21T07:59:24.023Z,100405.75
2022-10-21T08:01:53.286Z,100388.56
2022-10-21T08:04:24.851Z,100402.13
2022-10-21T08:06:52.733Z,100405.38
2022-10-21T08:09:23.787Z,100402.81
2022-10-21T08:12:01.232Z,100402.09
2022-10-21T08:14:33.933Z,100405.38
2022-10-21T08:17:24.092Z,100402.78
2022-10-21T08:20:01.043Z,100407.78
2022-10-21T08:22:55.248Z,100403.63
2022-10-21T08:25:24.125Z,100411.00
2022-10-21T08:27:53.560Z,100413.59
2022-10-21T08:30:21.576Z,100409.28
2022-10-21T08:32:49.653Z,100411.16
2022-10-21T08:35:17.601Z,100411.16
2022-10-21T08:37:48.927Z,100402.03
2022-10-21T08:40:18.083Z,100404.78
2022-10-21T08:42:46.386Z,100404.78
2022-10-21T08:45:24.995Z,100417.38
2022-10-21T08:47:56.331Z,100411.00
2022-10-21T08:50:37.811Z,100414.44
2022-10-21T08:53:14.531Z,100419.97
2022-10-21T08:55:44.722Z,100414.44
2022-10-21T08:58:16.497Z,100416.19
2022-10-21T09:00:49.726Z,100413.44
2022-10-21T09:03:25.031Z,100416.88
2022-10-21T09:06:17.008Z,100406.03
2022-10-21T09:08:57.407Z,100407.56
2022-10-21T09:11:34.767Z,100400.19
2022-10-21T09:14:40.332Z,100405.88
2022-10-21T09:17:22.408Z,100404.66
2022-10-21T09:19:59.389Z,100413.06
2022-10-21T09:23:38.223Z,100408.13
2022-10-21T09:26:25.338Z,100412.75
2022-10-21T09:29:18.938Z,100411.88
2022-10-21T09:31:53.100Z,100405.38
2022-10-21T09:34:38.742Z,100409.53
2022-10-21T09:37:13.135Z,100416.03
2022-10-21T09:39:56.066Z,100435.97
2022-10-21T09:42:46.398Z,100435.97
2022-10-21T09:45:36.176Z,100431.00
2022-10-21T09:48:07.551Z,100429.13
2022-10-21T09:50:38.896Z,100434.31
2022-10-21T09:53:35.646Z,100442.38
2022-10-21T09:56:06.326Z,100444.25
2022-10-21T09:58:51.042Z,100445.81
2022-10-21T10:01:21.783Z,100443.94
2022-10-21T10:03:51.711Z,100441.03
2022-10-21T10:06:43.471Z,100450.47
2022-10-21T10:09:25.653Z,100476.78
2022-10-21T10:12:01.678Z,100485.38
2022-10-21T10:14:34.954Z,100480.56
2022-10-21T10:17:22.637Z,100470.59
2022-10-21T10:20:16.256Z,100470.75
2022-10-21T10:22:48.073Z,100490.56
2022-10-21T10:25:24.314Z,100487.66
2022-10-21T10:27:54.921Z,100479.38
2022-10-21T10:30:48.087Z,100475.63
2022-10-21T10:33:17.507Z,100478.41
2022-10-21T10:35:51.873Z,100483.00
2022-10-21T10:38:26.088Z,100492.63
2022-10-21T10:40:58.643Z,100496.41
2022-10-21T10:43:31.134Z,100486.81
2022-10-21T10:46:01.360Z,100489.72
2022-10-21T10:48:39.497Z,100486.66
2022-10-21T10:51:09.298Z,100496.59
2022-10-21T10:54:39.581Z,100499.72
2022-10-21T11:00:51.762Z,100485.06
2022-10-21T11:03:35.885Z,100489.03
2022-10-21T11:07:13.157Z,100496.28
2022-10-21T11:11:15.366Z,100491.97
2022-10-21T11:17:00.192Z,100482.19
2022-10-21T11:19:35.268Z,100479.44
2022-10-21T11:22:14.109Z,100486.31
2022-10-21T11:24:55.499Z,100487.03
2022-10-21T11:27:48.733Z,100477.91
2022-10-21T11:30:19.896Z,100471.78
2022-10-21T11:33:08.692Z,100468.94
2022-10-21T11:35:53.071Z,100465.69
2022-10-21T11:38:38.140Z,100468.97
2022-10-21T11:46:02.945Z,100462.09
2022-10-21T11:57:26.937Z,100472.25
2022-10-21T12:00:06.494Z,100464.19
2022-10-21T12:02:43.885Z,100459.22
2022-10-21T12:05:27.893Z,100461.63
2022-10-21T12:08:13.917Z,100457.84
2022-10-21T12:10:48.279Z,100459.91
2022-10-21T12:13:21.898Z,100453.91
2022-10-21T12:15:54.412Z,100447.53
2022-10-21T12:18:24.915Z,100451.00
2022-10-21T12:20:54.916Z,100447.00
2022-10-21T12:23:25.889Z,100449.97
2022-10-21T12:26:05.669Z,100441.50
2022-10-21T12:28:39.954Z,100444.25
2022-10-21T12:31:24.646Z,100445.78
2022-10-21T12:34:57.254Z,100450.44
2022-10-21T12:48:53.592Z,100432.06
2022-10-21T12:51:41.563Z,100435.16
2022-10-21T12:54:24.225Z,100430.63
2022-10-21T12:57:04.461Z,100426.78
2022-10-21T12:59:41.196Z,100425.59
2022-10-21T13:02:28.427Z,100420.53
2022-10-21T13:06:07.118Z,100417.25
2022-10-21T13:08:56.052Z,100422.69
2022-10-21T13:11:48.650Z,100431.00
2022-10-21T13:18:56.462Z,100440.66
2022-10-21T13:21:27.354Z,100429.44
2022-10-21T13:23:59.353Z,100435.78
2022-10-21T13:26:30.232Z,100434.75
2022-10-21T13:29:17.508Z,100436.78
2022-10-21T13:31:45.531Z,100446.97
2022-10-21T13:34:29.068Z,100433.84
2022-10-21T13:36:57.835Z,100431.94
2022-10-21T13:39:31.115Z,100432.06
2022-10-21T13:42:04.615Z,100433.78
2022-10-21T13:44:36.463Z,100436.16
2022-10-21T13:47:27.004Z,100429.97
2022-10-21T13:49:56.268Z,100436.84
2022-10-21T13:52:29.389Z,100444.59
2022-10-21T13:55:00.433Z,100437.81
2022-10-21T13:57:32.168Z,100434.69
2022-10-21T14:00:07.342Z,100428.13
2022-10-21T14:02:35.682Z,100412.59
2022-10-21T14:05:03.642Z,100424.16
2022-10-21T14:07:31.806Z,100434.81
2022-10-21T14:10:01.426Z,100429.97
2022-10-21T14:12:34.958Z,100434.06
2022-10-21T14:15:07.993Z,100429.63
2022-10-21T14:17:48.937Z,100431.13
2022-10-21T14:20:26.952Z,100427.31
2022-10-21T14:22:56.838Z,100422.66
2022-10-21T14:25:26.441Z,100425.25
2022-10-21T14:27:54.600Z,100420.06
2022-10-21T14:30:25.511Z,100423.34
2022-10-21T14:32:54.610Z,100417.63
2022-10-21T14:35:26.513Z,100422.94
2022-10-21T14:37:58.674Z,100425.94
2022-10-21T14:40:32.148Z,100420.19
2022-10-21T14:43:05.933Z,100417.25
2022-10-21T14:45:36.651Z,100427.25
2022-10-21T14:48:28.606Z,100427.94
2022-10-21T14:51:00.947Z,100434.69
2022-10-21T14:56:44.412Z,100420.00
2022-10-21T15:00:03.424Z,100423.81
2022-10-21T15:04:05.196Z,100432.00
2022-10-21T15:07:33.620Z,100433.09
2022-10-21T15:10:31.643Z,100433.59
2022-10-21T15:13:01.824Z,100425.31
2022-10-21T15:15:52.562Z,100421.50
2022-10-21T15:18:24.136Z,100424.44
2022-10-21T15:20:57.067Z,100415.13
2022-10-21T15:23:38.220Z,100416.84
2022-10-21T15:26:21.739Z,100426.00
2022-10-21T15:28:50.388Z,100415.28
2022-10-21T15:31:21.486Z,100417.03
2022-10-21T15:33:50.551Z,100417.03
2022-10-21T15:36:46.546Z,100418.94
2022-10-21T15:39:15.115Z,100425.50
2022-10-21T15:41:45.484Z,100428.25
2022-10-21T15:47:29.338Z,100427.97
2022-10-21T15:49:57.748Z,100426.72
2022-10-21T15:52:29.201Z,100423.94
2022-10-21T15:54:57.297Z,100429.28
2022-10-21T15:57:26.495Z,100438.44
2022-10-21T15:59:54.507Z,100428.44
2022-10-21T16:02:22.507Z,100432.06
2022-10-21T16:04:53.056Z,100430.34
2022-10-21T16:07:23.039Z,100423.09
2022-10-21T16:09:51.066Z,100414.16
2022-10-21T16:12:21.857Z,100418.81
2022-10-21T16:14:51.214Z,100423.28
2022-10-21T16:17:19.739Z,100431.09
2022-10-21T16:19:47.626Z,100422.97
2022-10-21T16:22:20.144Z,100422.28
2022-10-21T16:24:50.396Z,100428.03
2022-10-21T16:27:31.173Z,100433.53
2022-10-21T16:30:19.846Z,100430.78
2022-10-21T16:32:47.704Z,100435.28
2022-10-21T16:35:17.106Z,100437.41
2022-10-21T16:37:46.043Z,100438.91
2022-10-21T16:40:19.545Z,100444.44
2022-10-21T16:42:47.967Z,100452.44
2022-10-21T16:45:18.190Z,100442.94
2022-10-21T16:47:51.672Z,100452.59
2022-10-21T16:50:23.121Z,100451.75
2022-10-21T16:52:51.108Z,100452.13
2022-10-21T16:55:19.663Z,100455.06
2022-10-21T16:57:47.755Z,100453.34
2022-10-21T17:00:18.144Z,100458.00
2022-10-21T17:03:09.898Z,100458.34
2022-10-21T17:05:38.692Z,100456.50
2022-10-21T17:08:07.073Z,100465.47
2022-10-21T17:10:38.082Z,100468.41
2022-10-21T17:13:11.681Z,100469.84
2022-10-21T17:15:41.875Z,100467.94
2022-10-21T17:18:13.182Z,100473.13
2022-10-21T17:20:44.219Z,100476.06
2022-10-21T17:23:27.128Z,100480.03
2022-10-21T17:25:55.279Z,100482.28
2022-10-21T17:28:25.305Z,100478.84
2022-10-21T17:30:56.898Z,100487.78
2022-10-21T17:33:27.363Z,100480.06
2022-10-21T17:36:10.417Z,100487.47
2022-10-21T17:38:39.021Z,100491.63
2022-10-21T17:41:07.101Z,100497.13
2022-10-21T17:43:35.278Z,100494.59
2022-10-21T17:46:04.481Z,100507.31
2022-10-21T17:48:44.108Z,100502.19
2022-10-21T17:51:16.111Z,100502.69
2022-10-21T17:53:46.657Z,100511.66
2022-10-21T17:56:21.705Z,100513.94
2022-10-21T17:58:54.647Z,100514.75
2022-10-21T18:01:25.088Z,100531.06
2022-10-21T19:27:45.648Z,100520.91
2022-10-21T19:30:14.099Z,100522.66
2022-10-21T19:32:42.226Z,100521.63
2022-10-21T19:35:10.796Z,100518.66
2022-10-21T19:37:38.671Z,100522.47
2022-10-21T19:40:07.683Z,100524.38
2022-10-21T19:42:35.817Z,100533.66
2022-10-21T19:45:05.992Z,100541.78
2022-10-21T19:47:34.355Z,100541.94
2022-10-21T19:50:02.312Z,100529.34
2022-10-21T19:52:30.691Z,100536.75
2022-10-21T19:54:58.654Z,100555.19
2022-10-21T19:57:27.104Z,100548.97
2022-10-21T19:59:56.423Z,100550.03
2022-10-21T20:02:28.141Z,100558.09
2022-10-21T20:04:56.201Z,100563.13
2022-10-21T20:07:24.148Z,100576.91
2022-10-21T20:09:52.481Z,100576.03
2022-10-21T20:12:20.475Z,100588.78
2022-10-21T20:14:48.789Z,100576.91
2022-10-21T20:17:18.345Z,100574.31
2022-10-21T20:19:49.783Z,100576.91
2022-10-21T20:22:18.667Z,100583.59
2022-10-21T20:24:46.757Z,100599.28
2022-10-21T20:27:14.809Z,100592.03
2022-10-21T20:29:42.778Z,100591.16
2022-10-21T20:32:11.046Z,100592.41
2022-10-21T20:34:39.815Z,100588.78
2022-10-21T20:37:09.471Z,100583.25
2022-10-21T20:39:38.324Z,100592.56
2022-10-21T20:42:06.555Z,100593.59
2022-10-21T20:44:34.578Z,100591.00
2022-10-21T20:47:02.708Z,100590.13
2022-10-21T20:49:30.688Z,100593.91
2022-10-21T20:51:58.856Z,100592.19
2022-10-21T20:54:29.143Z,100590.28
2022-10-21T20:56:57.103Z,100595.31
2022-10-21T20:59:25.060Z,100584.28
2022-10-21T21:01:53.302Z,100592.53
2022-10-21T21:04:23.787Z,100604.75
2022-10-21T21:06:52.437Z,100611.13
2022-10-21T21:09:43.646Z,100599.25
2022-10-21T21:12:11.267Z,100606.66
2022-10-21T21:14:39.282Z,100602.34
2022-10-21T21:17:08.087Z,100597.69
2022-10-21T21:19:36.243Z,100599.78
2022-10-21T21:22:05.165Z,100603.56
2022-10-21T21:24:33.234Z,100599.94
2022-10-21T21:27:01.186Z,100598.38
2022-10-21T21:29:30.537Z,100592.00
2022-10-21T21:31:58.887Z,100596.78
2022-10-21T21:34:26.858Z,100593.38
2022-10-21T21:36:54.779Z,100599.03
2022-10-21T21:39:22.778Z,100599.03
2022-10-21T21:41:50.875Z,100586.47
2022-10-21T21:44:18.800Z,100588.19
2022-10-21T21:46:48.253Z,100598.19
2022-10-21T21:49:16.435Z,100588.34
2022-10-21T21:51:44.559Z,100583.88
2022-10-21T21:54:13.450Z,100581.97
2022-10-21T21:56:41.523Z,100580.44
2022-10-21T21:59:09.458Z,100582.34
2022-10-21T22:01:37.805Z,100577.84
2022-10-21T22:04:07.259Z,100579.56
2022-10-21T22:06:37.586Z,100580.75
2022-10-21T22:09:10.090Z,100579.03
2022-10-21T22:11:39.240Z,100574.03
2022-10-21T22:14:07.283Z,100586.59
2022-10-21T22:16:35.462Z,100584.19
2022-10-21T22:19:03.537Z,100586.09
2022-10-21T22:21:33.312Z,100581.44
2022-10-21T22:24:01.287Z,100575.22
2022-10-21T22:26:29.980Z,100574.38
2022-10-21T22:28:58.080Z,100572.63
2022-10-21T22:31:29.426Z,100565.25
2022-10-21T22:33:59.655Z,100564.53
2022-10-21T22:36:27.629Z,100576.41
2022-10-21T22:38:57.133Z,100563.50
2022-10-21T22:41:25.347Z,100576.41
2022-10-21T22:43:53.564Z,100573.84
2022-10-21T22:46:29.767Z,100577.63
2022-10-21T22:49:02.371Z,100582.44
2022-10-21T22:51:30.210Z,100575.91
2022-10-21T22:54:02.755Z,100575.75
2022-10-21T22:56:30.899Z,100581.00
2022-10-21T22:58:59.178Z,100575.50
2022-10-21T23:01:30.434Z,100588.41
2022-10-21T23:04:02.660Z,100597.53
2022-10-21T23:06:30.838Z,100595.28
2022-10-21T23:09:00.179Z,100595.13
2022-10-21T23:11:28.552Z,100607.16
2022-10-21T23:14:03.027Z,100599.91
2022-10-21T23:16:35.739Z,100596.31
2022-10-21T23:19:03.804Z,100595.44
2022-10-21T23:21:31.860Z,100587.19
2022-10-21T23:24:01.095Z,100596.31
2022-10-21T23:26:29.142Z,100596.47
2022-10-21T23:28:57.176Z,100599.38
2022-10-21T23:31:25.248Z,100606.59
2022-10-21T23:33:53.187Z,100604.88
2022-10-21T23:36:21.401Z,100607.63
2022-10-21T23:38:54.428Z,100605.75
2022-10-21T23:41:24.771Z,100607.47
2022-10-21T23:43:52.625Z,100605.75
2022-10-21T23:46:20.811Z,100611.25
2022-10-21T23:48:48.980Z,100610.22
2022-10-21T23:51:22.968Z,100611.25
2022-10-21T23:53:50.941Z,100616.75
2022-10-21T23:56:18.913Z,100615.72
2022-10-21T23:58:48.558Z,100617.47
